AirNav   Air Wisconsin pilot careers
 
 407 users online  

21OR KATU Heliport
Portland, Oregon, USA

GOING TO PORTLAND?


FAA INFORMATION EFFECTIVE 08 NOVEMBER 2018

Location

FAA Identifier: 21OR
Lat/Long: 45-31-37.4260N / 122-38-38.3430W
45-31.623767N / 122-38.639050W
45.5270628 / -122.6439842
(estimated)
Elevation: 160 ft. / 49 m (estimated)
Variation: 19E (1985)
From city: 3 miles N of PORTLAND, OR
Time zone: UTC -8 (UTC -7 during Daylight Saving Time)
Zip code: 97232

Heliport Operations

Heliport use: Private use. Permission required prior to landing
Activation date: 03/1982
Control tower: no
ARTCC: SEATTLE CENTER
FSS: MC MINNVILLE FLIGHT SERVICE STATION
Attendance: UNATNDD
Wind indicator: lighted
Segmented circle: no
Lights: FOR HELIPAD LGTS PHONE 503-231-8853.

Heliport Communications

WX ASOS at PDX (4 nm NE): PHONE (503) 493-7687
WX ASOS at VUO (6 nm N): 135.125 (360-696-1280)
WX ASOS at TTD (10 nm E): 135.625 (503-492-2887)
WX ASOS at HIO (13 nm W): PHONE 503-640-2984
WX ASOS at SPB (17 nm NW): 135.875 (503-543-6401)
WX ASOS at UAO (18 nm S): PHONE 503-678-3011

Nearby radio navigation aids

VOR radial/distance  VOR name  Freq  Var
BTGr168/13.4BATTLE GROUND VORTAC116.6021E
UBGr032/17.5NEWBERG VOR/DME117.4021E

 
NDB name  Hdg/Dist  Freq  Var  ID
BANKS094/18.035616EPND .--. -. -..
KELSO146/39.325617ELSO .-.. ... ---

Heliport Services

Runway Information

Helipad H1

Dimensions: 46 x 46 ft. / 14 x 14 m
Surface: concrete, in fair condition
Latitude: 45-31.623767N
Longitude: 122-38.639050W
Elevation: 160.0 ft.
Traffic pattern: leftleft

Heliport Ownership and Management from official FAA records

Ownership: Privately-owned
Owner: FISHER BROADCASTING INC.
2153 N E SANDY BLVD
PORTLAND, OR 97232
Phone 503-231-4222
Manager: TIM ONDRACEK
2153 NE SANDY BLVD
PORTLAND, OR 97232
Phone (503) 231-4256

Additional Remarks

A40 RWY H1 - FLOODLIGHTS.
A52-H1 50' STACK 750' NW; 20' POLE 325 NE; 40' ANT 1000' NW.
A33 RWY H1 - ROOFTOP.
FOR CD CTC PORTLAND APCH AT 503-493-7545.

Instrument Procedures

There are no published instrument procedures at 21OR.

Some nearby airports with instrument procedures:

KPDX - Portland International Airport (4 nm NE)
KVUO - Pearson Field Airport (6 nm N)
KTTD - Portland-Troutdale Airport (10 nm E)
KHIO - Portland-Hillsboro Airport (13 nm W)
KSPB - Scappoose Industrial Airpark (17 nm NW)
KUAO - Aurora State Airport (18 nm S)
 
Loc | Ops | Rwys | IFR | FBO | Links
Com | Nav | Svcs | Stats | Notes


 
Area around 21OR (KATU Heliport)
 
Road maps at: MapQuest Bing Google
 
Aerial photo
WARNING: Photo may not be current or correct
Aerial photo of 21OR (KATU Heliport)
Do you have a better or more recent aerial photo of KATU Heliport that you would like to share? If so, please send us your photo.

 
Sectional chart

 
Airport distance calculator
Flying to KATU Heliport? Find the distance to fly.

From to 21OR

Sunrise and sunset
Times for 18-Nov-2018
 Local
(UTC-8)
 Zulu
(UTC)
Morning civil twilight06:4314:43
Sunrise07:1515:15
Sunset16:3700:37
Evening civil twilight17:0901:09

Current date and time
Zulu (UTC)  18-Nov-2018 11:18:57
Local (UTC-8)  18-Nov-2018 03:18:57
 
METAR
KPDX 
4nm NE 
181053Z 28005KT 10SM CLR 04/00 A3018 RMK AO2 SLP220 T00440000
KVUO 
5nm N 
181053Z AUTO 31003KT 10SM CLR 02/M02 A3018 RMK AO2 SLP219 T00221017
KTTD 
10nm E 
181053Z AUTO 09016G23KT 10SM CLR 07/00 A3018 RMK AO2 SLP218 T00720000
KHIO 
13nm W 
181053Z AUTO 31005KT 10SM CLR M01/M03 A3017 RMK AO2 SLP217 T10111028
KSPB 
17nm NW 
181053Z AUTO 28003KT 10SM CLR 02/M02 A3018 RMK AO2 SLP219 T00171017
KUAO 
17nm S 
181053Z AUTO 00000KT 10SM CLR 02/M02 A3016 RMK AO2 SLP212 T00221017
TAF
KPDX 
4nm NE 
180857Z 1809/1906 09012G20KT P6SM SKC FM181200 09011KT P6SM SKC
KTTD 
10nm E 
180538Z 1806/1906 09017G26KT P6SM SKC
KHIO 
13nm W 
180538Z 1806/1906 07009KT P6SM SKC FM180900 05003KT P6SM SKC
KUAO 
17nm S 
180538Z 1806/1906 03007KT P6SM SKC FM181200 02004KT P6SM SKC
NOTAMs
Click for the latest NOTAMs
NOTAMs are issued by the DoD/FAA and will open in a separate window not controlled by AirNav.

 

 
 

Would you like to see your business listed on this page?

 If your business provides an interesting product or service to pilots, flight crews, aircraft, or users of the KATU Heliport, you should consider listing it here.  To start the listing process, click on the button below
 
Add a business
 

Other Pages about KATU Heliport

Update a link
 
Copyright © AirNav, LLC. All rights reserved. Privacy Policy  Contact